Time;durP1;ratioP1;P1;durP2;ratioP2;P2;SDS_P1;SDS_P2;PMS_P1;PMS_P2;Temp;Humidity;BMP_temperature;BMP_pressure;BME280_temperature;BME280_humidity;BME280_pressure;Samples;Min_cycle;Max_cycle;Signal;HPM_P1;HPM_P2
2021/06/23 00:01:47;;;;;;;;;;;14.20;99.90;;;;;;4966286;28;20395;-80
2021/06/23 00:04:14;;;;;;;;;;;14.20;99.90;;;;;;4967197;28;19934;-80
2021/06/23 00:06:41;;;;;;;;;;;14.20;99.90;;;;;;4971062;28;20385;-79
2021/06/23 00:09:07;;;;;;;;;;;14.10;99.90;;;;;;4969710;28;19929;-80
2021/06/23 00:11:42;;;;;;;;;;;14.20;99.90;;;;;;4967008;28;19926;-80
2021/06/23 00:14:09;;;;;;;;;;;14.10;99.90;;;;;;4967028;28;19930;-80
2021/06/23 00:16:35;;;;;;;;;;;14.10;99.90;;;;;;4965185;28;19930;-80
2021/06/23 00:19:02;;;;;;;;;;;14.10;99.90;;;;;;4968115;28;19973;-80
2021/06/23 00:21:29;;;;;;;;;;;14.10;99.90;;;;;;4966632;28;19985;-80
2021/06/23 00:23:56;;;;;;;;;;;14.10;99.90;;;;;;4966765;28;19926;-80
2021/06/23 00:26:22;;;;;;;;;;;14.10;99.90;;;;;;4965569;28;19941;-80
2021/06/23 00:28:49;;;;;;;;;;;14.10;99.90;;;;;;4966044;28;19933;-80
2021/06/23 00:31:16;;;;;;;;;;;14.10;99.90;;;;;;4964521;28;19944;-80
2021/06/23 00:33:44;;;;;;;;;;;14.10;99.90;;;;;;4965554;28;19958;-80
2021/06/23 00:36:10;;;;;;;;;;;14.10;99.90;;;;;;4965185;28;19930;-80
2021/06/23 00:38:37;;;;;;;;;;;14.10;99.90;;;;;;4965741;28;20284;-80
2021/06/23 00:41:04;;;;;;;;;;;14.10;99.90;;;;;;4963403;28;19926;-80
2021/06/23 00:43:30;;;;;;;;;;;14.10;99.90;;;;;;4966267;28;19926;-80
2021/06/23 00:45:57;;;;;;;;;;;14.10;99.90;;;;;;4965725;28;19926;-80
2021/06/23 00:48:28;;;;;;;;;;;14.10;99.90;;;;;;4972230;28;19926;-80
2021/06/23 00:50:56;;;;;;;;;;;14.10;99.90;;;;;;4966839;28;20021;-80
2021/06/23 00:53:23;;;;;;;;;;;14.00;99.90;;;;;;4976321;28;20574;-80
2021/06/23 00:55:54;;;;;;;;;;;14.10;99.90;;;;;;4962893;28;20388;-80
2021/06/23 00:58:21;;;;;;;;;;;14.10;99.90;;;;;;4971958;28;19926;-81
2021/06/23 01:00:49;;;;;;;;;;;14.10;99.90;;;;;;4964726;28;20321;-80
2021/06/23 01:03:16;;;;;;;;;;;14.10;99.90;;;;;;4981754;28;19933;-80
2021/06/23 01:05:43;;;;;;;;;;;14.10;99.90;;;;;;4964423;28;20293;-80
2021/06/23 01:08:09;;;;;;;;;;;14.10;99.90;;;;;;4963177;28;20298;-80
2021/06/23 01:10:37;;;;;;;;;;;14.10;99.90;;;;;;4966494;28;19929;-79
2021/06/23 01:13:09;;;;;;;;;;;14.10;99.90;;;;;;4963009;28;19986;-80
2021/06/23 01:15:38;;;;;;;;;;;14.10;99.90;;;;;;4965788;28;19958;-80
2021/06/23 01:18:07;;;;;;;;;;;14.10;99.90;;;;;;4964124;28;19930;-80
2021/06/23 01:20:39;;;;;;;;;;;14.10;99.90;;;;;;4975992;28;19964;-79
2021/06/23 01:23:06;;;;;;;;;;;14.10;99.90;;;;;;4962901;28;19926;-79
2021/06/23 01:25:33;;;;;;;;;;;14.10;99.90;;;;;;4976421;28;19930;-79
2021/06/23 01:27:59;;;;;;;;;;;14.10;99.90;;;;;;4962941;28;19926;-79
2021/06/23 01:30:26;;;;;;;;;;;14.00;99.90;;;;;;4962586;28;20369;-79
2021/06/23 01:32:53;;;;;;;;;;;14.00;99.90;;;;;;4963877;28;19933;-79
2021/06/23 01:35:20;;;;;;;;;;;14.00;99.90;;;;;;4966685;28;20266;-79
2021/06/23 01:37:47;;;;;;;;;;;14.00;99.90;;;;;;4961771;28;20035;-79
2021/06/23 01:40:14;;;;;;;;;;;14.00;99.90;;;;;;4969037;28;20005;-79
2021/06/23 01:42:41;;;;;;;;;;;14.00;99.90;;;;;;4961124;28;19925;-79
2021/06/23 01:45:08;;;;;;;;;;;14.00;99.90;;;;;;4963052;28;19931;-79
2021/06/23 01:47:35;;;;;;;;;;;14.00;99.90;;;;;;4946463;28;19927;-79
2021/06/23 01:50:02;;;;;;;;;;;14.00;99.90;;;;;;4961627;28;24866;-78
2021/06/23 01:52:29;;;;;;;;;;;14.00;99.90;;;;;;4959760;28;19926;-79
2021/06/23 01:54:56;;;;;;;;;;;14.00;99.90;;;;;;4956703;28;20007;-79
2021/06/23 01:57:22;;;;;;;;;;;14.00;99.90;;;;;;4964106;28;19966;-80
2021/06/23 01:59:49;;;;;;;;;;;14.00;99.90;;;;;;4960106;28;19993;-78
2021/06/23 02:02:29;;;;;;;;;;;14.00;99.90;;;;;;4960351;28;20338;-79
2021/06/23 02:05:07;;;;;;;;;;;14.00;99.90;;;;;;4959432;28;19926;-79
2021/06/23 02:07:33;;;;;;;;;;;14.00;99.90;;;;;;4961111;28;19933;-79
2021/06/23 02:10:19;;;;;;;;;;;13.90;99.90;;;;;;4963514;28;19925;-79
2021/06/23 02:13:04;;;;;;;;;;;13.90;99.90;;;;;;4963333;28;19926;-79
2021/06/23 02:15:33;;;;;;;;;;;13.90;99.90;;;;;;4961878;28;20020;-79
2021/06/23 02:18:02;;;;;;;;;;;13.80;99.90;;;;;;4962340;28;20053;-79
2021/06/23 02:20:30;;;;;;;;;;;13.80;99.90;;;;;;4966397;28;19970;-78
2021/06/23 02:23:04;;;;;;;;;;;13.70;99.90;;;;;;4963209;28;20382;-78
2021/06/23 02:25:30;;;;;;;;;;;13.70;99.90;;;;;;4964032;28;19925;-78
2021/06/23 02:27:57;;;;;;;;;;;13.70;99.90;;;;;;4963331;28;19927;-78
2021/06/23 02:30:24;;;;;;;;;;;13.60;99.90;;;;;;4962198;28;19934;-78
2021/06/23 02:32:53;;;;;;;;;;;13.60;99.90;;;;;;4964289;28;19925;-78
2021/06/23 02:35:24;;;;;;;;;;;13.60;99.90;;;;;;4964062;28;19926;-80
2021/06/23 02:37:51;;;;;;;;;;;13.50;99.90;;;;;;4968507;28;20030;-78
2021/06/23 02:40:18;;;;;;;;;;;13.50;99.90;;;;;;4964133;28;20406;-78
2021/06/23 02:42:45;;;;;;;;;;;13.50;99.90;;;;;;4971232;28;19932;-80
2021/06/23 02:45:13;;;;;;;;;;;13.50;99.90;;;;;;4964010;28;19933;-78
2021/06/23 02:47:39;;;;;;;;;;;13.40;99.90;;;;;;4964930;28;19982;-79
2021/06/23 02:50:09;;;;;;;;;;;13.50;99.90;;;;;;4961579;28;19936;-78
2021/06/23 02:52:37;;;;;;;;;;;13.50;99.90;;;;;;4963343;28;19926;-78
2021/06/23 02:55:04;;;;;;;;;;;13.50;99.90;;;;;;4966166;28;19933;-78
2021/06/23 02:57:31;;;;;;;;;;;13.50;99.90;;;;;;4965715;28;20775;-78
2021/06/23 02:59:58;;;;;;;;;;;13.50;99.90;;;;;;4967029;28;19926;-79
2021/06/23 03:02:24;;;;;;;;;;;13.50;99.90;;;;;;4966857;28;19940;-78
2021/06/23 03:04:51;;;;;;;;;;;13.50;99.90;;;;;;4966412;28;19926;-78
2021/06/23 03:07:18;;;;;;;;;;;13.50;99.90;;;;;;4972322;28;19989;-78
2021/06/23 03:09:45;;;;;;;;;;;13.50;99.90;;;;;;4964765;28;19925;-78
2021/06/23 03:12:13;;;;;;;;;;;13.50;99.90;;;;;;4968699;28;19930;-78
2021/06/23 03:14:40;;;;;;;;;;;13.50;99.90;;;;;;4970129;28;20012;-79
2021/06/23 03:17:06;;;;;;;;;;;13.50;99.90;;;;;;4973326;28;20379;-79
2021/06/23 03:19:33;;;;;;;;;;;13.50;99.90;;;;;;4967432;28;19944;-78
2021/06/23 03:22:06;;;;;;;;;;;13.50;99.90;;;;;;4969138;28;19926;-78
2021/06/23 03:24:35;;;;;;;;;;;13.50;99.90;;;;;;4973278;28;20029;-80
2021/06/23 03:27:02;;;;;;;;;;;13.50;99.90;;;;;;4966396;28;19926;-78
2021/06/23 03:29:31;;;;;;;;;;;13.50;99.90;;;;;;4968818;28;20293;-80
2021/06/23 03:31:58;;;;;;;;;;;13.50;99.90;;;;;;4970031;28;19928;-78
2021/06/23 03:34:26;;;;;;;;;;;13.50;99.90;;;;;;4968026;28;19954;-78
2021/06/23 03:36:53;;;;;;;;;;;13.50;99.90;;;;;;4966969;28;19929;-78
2021/06/23 03:39:20;;;;;;;;;;;13.50;99.90;;;;;;4966426;28;19936;-81
2021/06/23 03:41:47;;;;;;;;;;;13.50;99.90;;;;;;4974889;28;19928;-78
2021/06/23 03:44:13;;;;;;;;;;;13.50;99.90;;;;;;4967158;28;19989;-78
2021/06/23 03:46:40;;;;;;;;;;;13.60;99.90;;;;;;4970757;28;19936;-78
2021/06/23 03:49:06;;;;;;;;;;;13.50;99.90;;;;;;4964922;28;20380;-78
2021/06/23 03:51:33;;;;;;;;;;;13.50;99.90;;;;;;4974462;28;22107;-78
2021/06/23 03:54:00;;;;;;;;;;;13.50;99.90;;;;;;4967183;28;20248;-80
2021/06/23 03:56:26;;;;;;;;;;;13.50;99.90;;;;;;4974849;28;19937;-80
2021/06/23 03:58:53;;;;;;;;;;;13.50;99.90;;;;;;4966913;28;19981;-80
2021/06/23 04:01:20;;;;;;;;;;;13.60;99.90;;;;;;4966735;28;19990;-80
2021/06/23 04:03:47;;;;;;;;;;;13.60;99.90;;;;;;4970037;28;19927;-78
2021/06/23 04:06:13;;;;;;;;;;;13.60;99.90;;;;;;4971153;28;19926;-79
2021/06/23 04:08:40;;;;;;;;;;;13.60;99.90;;;;;;4968717;28;19932;-78
2021/06/23 04:11:07;;;;;;;;;;;13.60;99.90;;;;;;4958878;28;19925;-80
2021/06/23 04:13:33;;;;;;;;;;;13.60;99.90;;;;;;4970636;28;19927;-80
2021/06/23 04:16:00;;;;;;;;;;;13.70;99.90;;;;;;4967588;28;19922;-80
2021/06/23 04:18:27;;;;;;;;;;;13.70;99.90;;;;;;4969426;28;19926;-80
2021/06/23 04:20:53;;;;;;;;;;;13.70;99.90;;;;;;4966247;28;19933;-81
2021/06/23 04:23:20;;;;;;;;;;;13.80;99.90;;;;;;4970019;28;19932;-80
2021/06/23 04:25:47;;;;;;;;;;;13.80;99.90;;;;;;4966891;28;19930;-80
2021/06/23 04:28:14;;;;;;;;;;;13.80;99.90;;;;;;4967565;28;20293;-80
2021/06/23 04:30:41;;;;;;;;;;;13.80;99.90;;;;;;4965336;28;19926;-80
2021/06/23 04:33:07;;;;;;;;;;;13.90;99.90;;;;;;4966821;28;19926;-80
2021/06/23 04:35:34;;;;;;;;;;;13.90;99.90;;;;;;4967531;28;20012;-81
2021/06/23 04:38:01;;;;;;;;;;;13.90;99.90;;;;;;4964989;28;19926;-80
2021/06/23 04:40:27;;;;;;;;;;;13.90;99.90;;;;;;4969414;28;19914;-80
2021/06/23 04:42:55;;;;;;;;;;;13.90;99.90;;;;;;4969029;28;19931;-80
2021/06/23 04:45:21;;;;;;;;;;;14.00;99.90;;;;;;4973827;28;20004;-80
2021/06/23 04:47:48;;;;;;;;;;;13.90;99.90;;;;;;4964338;28;20020;-77
2021/06/23 04:50:15;;;;;;;;;;;14.00;99.90;;;;;;4968718;28;19930;-80
2021/06/23 04:52:41;;;;;;;;;;;14.00;99.90;;;;;;4968262;28;19925;-80
2021/06/23 04:55:08;;;;;;;;;;;14.00;99.90;;;;;;4970247;28;19936;-80
2021/06/23 04:57:36;;;;;;;;;;;14.00;99.90;;;;;;4967183;28;19953;-80
2021/06/23 05:00:04;;;;;;;;;;;14.00;99.90;;;;;;4967833;28;19933;-80
2021/06/23 05:02:30;;;;;;;;;;;14.00;99.90;;;;;;4968249;28;19950;-80
2021/06/23 05:04:57;;;;;;;;;;;14.10;99.90;;;;;;4970336;28;19932;-80
2021/06/23 05:07:24;;;;;;;;;;;14.20;99.90;;;;;;4970540;28;19933;-80
2021/06/23 05:09:51;;;;;;;;;;;14.20;99.90;;;;;;4970056;28;19936;-80
2021/06/23 05:12:18;;;;;;;;;;;14.20;99.90;;;;;;4970143;28;19932;-80
2021/06/23 05:14:45;;;;;;;;;;;14.30;99.90;;;;;;4971739;28;20090;-80
2021/06/23 05:17:12;;;;;;;;;;;14.40;99.90;;;;;;4968569;28;19986;-80
2021/06/23 05:19:41;;;;;;;;;;;14.40;99.90;;;;;;4967472;28;19925;-80
2021/06/23 05:22:11;;;;;;;;;;;14.40;99.90;;;;;;4965211;28;19990;-80
2021/06/23 05:24:39;;;;;;;;;;;14.50;99.90;;;;;;4970361;28;20012;-80
2021/06/23 05:27:06;;;;;;;;;;;14.60;99.90;;;;;;4966197;28;19993;-80
2021/06/23 05:29:33;;;;;;;;;;;14.60;99.90;;;;;;4970038;28;19926;-80
2021/06/23 05:32:00;;;;;;;;;;;14.70;99.90;;;;;;4966463;28;19989;-80
2021/06/23 05:34:28;;;;;;;;;;;14.70;99.90;;;;;;4970042;28;19961;-81
2021/06/23 05:36:56;;;;;;;;;;;14.90;99.90;;;;;;4970846;28;20510;-80
2021/06/23 05:39:23;;;;;;;;;;;14.90;99.90;;;;;;4968188;28;20396;-80
2021/06/23 05:41:50;;;;;;;;;;;15.00;99.90;;;;;;4967968;28;19926;-80
2021/06/23 05:44:17;;;;;;;;;;;15.00;99.90;;;;;;4975243;28;19953;-80
2021/06/23 05:46:44;;;;;;;;;;;15.00;99.90;;;;;;4963280;28;20021;-81
2021/06/23 05:49:11;;;;;;;;;;;15.10;99.90;;;;;;4967594;28;19925;-80
2021/06/23 05:51:37;;;;;;;;;;;15.10;99.90;;;;;;4973297;28;19926;-80
2021/06/23 05:54:04;;;;;;;;;;;15.10;99.90;;;;;;4966021;28;19926;-80
2021/06/23 05:56:31;;;;;;;;;;;15.20;99.90;;;;;;4965584;28;20102;-81
2021/06/23 05:58:57;;;;;;;;;;;15.20;99.90;;;;;;4967099;28;19985;-81
2021/06/23 06:01:24;;;;;;;;;;;15.30;99.90;;;;;;4966652;28;19926;-80
2021/06/23 06:03:50;;;;;;;;;;;15.30;99.90;;;;;;4968729;28;19926;-80
2021/06/23 06:06:17;;;;;;;;;;;15.30;99.90;;;;;;4967802;28;19926;-80
2021/06/23 06:08:44;;;;;;;;;;;15.30;99.90;;;;;;4968292;28;19998;-79
2021/06/23 06:11:10;;;;;;;;;;;15.40;99.90;;;;;;4962189;28;19925;-80
2021/06/23 06:13:37;;;;;;;;;;;15.50;99.90;;;;;;4965618;28;20424;-80
2021/06/23 06:16:04;;;;;;;;;;;15.50;99.90;;;;;;4966900;28;19910;-80
2021/06/23 06:18:31;;;;;;;;;;;15.70;99.90;;;;;;4966667;28;19927;-80
2021/06/23 06:20:58;;;;;;;;;;;15.80;99.90;;;;;;4966949;28;19957;-80
2021/06/23 06:23:25;;;;;;;;;;;16.00;99.90;;;;;;4968384;28;19926;-80
2021/06/23 06:25:52;;;;;;;;;;;16.10;99.90;;;;;;4969529;28;19930;-80
2021/06/23 06:28:19;;;;;;;;;;;16.20;99.90;;;;;;4966275;28;19933;-80
2021/06/23 06:30:46;;;;;;;;;;;16.40;99.90;;;;;;4968138;28;19929;-80
2021/06/23 06:33:12;;;;;;;;;;;16.50;99.90;;;;;;4964009;28;19926;-79
2021/06/23 06:35:39;;;;;;;;;;;16.60;99.90;;;;;;4966815;28;19934;-80
2021/06/23 06:38:06;;;;;;;;;;;16.70;99.90;;;;;;4966523;28;19932;-80
2021/06/23 06:40:33;;;;;;;;;;;16.70;99.90;;;;;;4971801;28;19936;-80
2021/06/23 06:42:59;;;;;;;;;;;16.80;99.90;;;;;;4965698;28;19925;-80
2021/06/23 06:45:26;;;;;;;;;;;16.80;99.90;;;;;;4968580;28;19929;-80
2021/06/23 06:47:53;;;;;;;;;;;16.80;99.90;;;;;;4973572;28;19932;-80
2021/06/23 06:50:20;;;;;;;;;;;16.80;99.90;;;;;;4967302;28;19926;-80
2021/06/23 06:52:47;;;;;;;;;;;16.80;99.90;;;;;;4967652;28;19930;-80
2021/06/23 06:55:20;;;;;;;;;;;16.80;99.90;;;;;;4968327;28;20005;-80
2021/06/23 06:57:56;;;;;;;;;;;16.90;99.90;;;;;;4965840;28;19965;-80
2021/06/23 07:00:23;;;;;;;;;;;17.00;99.90;;;;;;4968705;28;19933;-80
2021/06/23 07:02:54;;;;;;;;;;;17.00;99.90;;;;;;4961012;28;19926;-80
2021/06/23 07:05:21;;;;;;;;;;;17.00;99.90;;;;;;4966273;28;19926;-80
2021/06/23 07:07:48;;;;;;;;;;;16.90;99.90;;;;;;4970679;28;19926;-80
2021/06/23 07:10:14;;;;;;;;;;;16.90;99.90;;;;;;4975622;28;19926;-80
2021/06/23 07:12:42;;;;;;;;;;;17.10;99.90;;;;;;4971859;28;19956;-80
2021/06/23 07:15:08;;;;;;;;;;;17.20;99.90;;;;;;4968404;28;19930;-80
2021/06/23 07:17:35;;;;;;;;;;;17.30;99.90;;;;;;4968674;28;19961;-80
2021/06/23 07:20:05;;;;;;;;;;;17.40;99.90;;;;;;4970945;28;19977;-80
2021/06/23 07:22:32;;;;;;;;;;;17.30;99.90;;;;;;4973808;28;19928;-80
2021/06/23 07:24:59;;;;;;;;;;;17.30;99.90;;;;;;4971792;28;19926;-80
2021/06/23 07:27:26;;;;;;;;;;;17.40;99.90;;;;;;4979194;28;19926;-80
2021/06/23 07:29:52;;;;;;;;;;;17.60;99.90;;;;;;4970085;28;20012;-80
2021/06/23 07:38:07;;;;;;;;;;;17.70;99.90;;;;;;4969659;28;20017;-79
2021/06/23 07:41:01;;;;;;;;;;;17.70;99.90;;;;;;4981388;28;19989;-80
2021/06/23 07:43:28;;;;;;;;;;;17.60;99.90;;;;;;4970109;28;19926;-80
2021/06/23 07:45:59;;;;;;;;;;;17.50;99.90;;;;;;4983031;28;20025;-81
2021/06/23 07:48:49;;;;;;;;;;;17.50;99.90;;;;;;4969009;28;19926;-80
2021/06/23 07:51:19;;;;;;;;;;;17.40;99.90;;;;;;4970178;28;19926;-80
2021/06/23 08:02:19;;;;;;;;;;;17.50;99.90;;;;;;4970552;28;20040;-80
2021/06/23 08:10:06;;;;;;;;;;;18.00;99.90;;;;;;4970259;28;19930;-80
2021/06/23 08:12:52;;;;;;;;;;;18.10;99.90;;;;;;4977715;28;19926;-80
2021/06/23 08:15:19;;;;;;;;;;;18.20;99.90;;;;;;4971893;28;20017;-80
2021/06/23 08:17:46;;;;;;;;;;;18.10;99.90;;;;;;4968630;28;19923;-80
2021/06/23 08:20:13;;;;;;;;;;;18.10;99.90;;;;;;4969510;28;19922;-81
2021/06/23 08:22:40;;;;;;;;;;;18.10;99.90;;;;;;4972518;28;21069;-81
2021/06/23 08:25:06;;;;;;;;;;;18.10;99.90;;;;;;4971061;28;19933;-80
2021/06/23 08:27:37;;;;;;;;;;;18.10;99.90;;;;;;4976076;28;19926;-80
2021/06/23 08:30:04;;;;;;;;;;;18.10;99.90;;;;;;4970432;28;20016;-80
2021/06/23 08:32:31;;;;;;;;;;;18.20;99.90;;;;;;4975813;28;20366;-80
2021/06/23 08:34:58;;;;;;;;;;;18.30;99.90;;;;;;4969936;28;19945;-80
2021/06/23 08:37:24;;;;;;;;;;;18.30;99.90;;;;;;4977134;28;20020;-80
2021/06/23 08:39:52;;;;;;;;;;;18.30;99.90;;;;;;4966400;28;19926;-81
2021/06/23 08:42:20;;;;;;;;;;;18.30;99.90;;;;;;4969435;28;19945;-81
2021/06/23 08:44:47;;;;;;;;;;;18.30;99.90;;;;;;4967008;28;19926;-81
2021/06/23 08:47:14;;;;;;;;;;;18.30;99.90;;;;;;4971220;28;19989;-81
2021/06/23 08:49:47;;;;;;;;;;;18.30;99.90;;;;;;4970286;28;19922;-81
2021/06/23 08:52:14;;;;;;;;;;;18.20;99.90;;;;;;4966227;28;19936;-80
2021/06/23 08:54:41;;;;;;;;;;;18.20;99.90;;;;;;4968188;28;19930;-81
2021/06/23 08:57:09;;;;;;;;;;;18.20;99.90;;;;;;4965795;28;19936;-81
2021/06/23 08:59:39;;;;;;;;;;;18.20;99.90;;;;;;4967749;28;19930;-78
2021/06/23 09:02:05;;;;;;;;;;;18.10;99.90;;;;;;4966623;28;19926;-80
2021/06/23 09:04:32;;;;;;;;;;;18.20;99.90;;;;;;4975828;28;19928;-81
2021/06/23 09:06:59;;;;;;;;;;;18.30;99.90;;;;;;4968484;28;20103;-81
2021/06/23 09:09:26;;;;;;;;;;;18.30;99.90;;;;;;4969067;28;19934;-78
2021/06/23 09:12:13;;;;;;;;;;;18.50;99.90;;;;;;4969630;28;19926;-79
2021/06/23 09:14:40;;;;;;;;;;;18.80;99.90;;;;;;4956799;28;20426;-79
2021/06/23 09:17:14;;;;;;;;;;;18.90;99.30;;;;;;4967240;28;20009;-81
2021/06/23 09:19:49;;;;;;;;;;;19.10;98.60;;;;;;4971757;28;19986;-81
2021/06/23 09:22:34;;;;;;;;;;;19.10;98.80;;;;;;4972302;28;19997;-81
2021/06/23 09:25:10;;;;;;;;;;;19.10;98.20;;;;;;4974027;28;20020;-81
2021/06/23 09:27:47;;;;;;;;;;;19.20;99.60;;;;;;4971554;28;19925;-81
2021/06/23 09:30:29;;;;;;;;;;;19.30;99.00;;;;;;4969274;28;20095;-81
2021/06/23 09:33:15;;;;;;;;;;;19.40;98.70;;;;;;4973892;28;19985;-81
2021/06/23 09:35:44;;;;;;;;;;;19.50;98.60;;;;;;4971929;28;20374;-81
2021/06/23 09:38:37;;;;;;;;;;;19.70;98.50;;;;;;4972469;28;19996;-79
2021/06/23 09:41:05;;;;;;;;;;;19.80;96.70;;;;;;4966126;28;19984;-80
2021/06/23 09:43:41;;;;;;;;;;;20.00;97.00;;;;;;4965122;28;19965;-79
2021/06/23 09:46:13;;;;;;;;;;;20.10;98.80;;;;;;4960436;28;19936;-79
2021/06/23 09:48:39;;;;;;;;;;;20.30;97.40;;;;;;4968755;28;20013;-79
2021/06/23 09:51:10;;;;;;;;;;;20.30;96.00;;;;;;4967141;28;19926;-80
2021/06/23 09:53:37;;;;;;;;;;;20.20;95.80;;;;;;4968762;28;20404;-80
2021/06/23 09:56:04;;;;;;;;;;;20.10;96.80;;;;;;4965198;28;19926;-80
2021/06/23 09:58:36;;;;;;;;;;;20.10;97.10;;;;;;4967610;28;19926;-80
2021/06/23 10:01:04;;;;;;;;;;;20.20;96.40;;;;;;4987488;28;19933;-80
2021/06/23 10:03:34;;;;;;;;;;;20.20;95.90;;;;;;4968192;28;19926;-80
2021/06/23 10:06:20;;;;;;;;;;;20.10;95.50;;;;;;4956392;28;19933;-79
2021/06/23 10:08:47;;;;;;;;;;;20.10;96.40;;;;;;4968307;28;19926;-80
2021/06/23 10:11:14;;;;;;;;;;;20.10;97.40;;;;;;4970214;28;19986;-80
2021/06/23 10:13:40;;;;;;;;;;;20.10;96.20;;;;;;4972604;28;19926;-79
2021/06/23 10:16:07;;;;;;;;;;;20.00;96.50;;;;;;4965308;28;19989;-80
2021/06/23 10:18:34;;;;;;;;;;;19.80;96.30;;;;;;4967102;28;19958;-80
2021/06/23 10:21:06;;;;;;;;;;;19.60;96.90;;;;;;4962919;28;19926;-80
2021/06/23 10:23:33;;;;;;;;;;;19.40;97.30;;;;;;4971050;28;19969;-80
2021/06/23 10:26:00;;;;;;;;;;;19.30;97.90;;;;;;4970811;28;20021;-80
2021/06/23 10:28:27;;;;;;;;;;;19.20;98.60;;;;;;4958370;28;20438;-80
2021/06/23 10:30:56;;;;;;;;;;;19.20;98.70;;;;;;4957904;28;19976;-80
2021/06/23 10:33:23;;;;;;;;;;;19.20;98.30;;;;;;4970494;28;20321;-80
2021/06/23 10:35:51;;;;;;;;;;;19.10;97.80;;;;;;4968985;28;20012;-80
2021/06/23 10:38:18;;;;;;;;;;;19.10;97.90;;;;;;4971628;28;19925;-80
2021/06/23 10:40:45;;;;;;;;;;;19.20;99.00;;;;;;4968602;28;20002;-80
2021/06/23 10:43:15;;;;;;;;;;;19.40;99.60;;;;;;4970445;28;19988;-80
2021/06/23 10:45:44;;;;;;;;;;;19.60;98.90;;;;;;4970011;28;19993;-80
2021/06/23 10:48:11;;;;;;;;;;;19.80;98.20;;;;;;4969980;28;19929;-80
2021/06/23 10:50:38;;;;;;;;;;;19.90;97.70;;;;;;4960067;28;19989;-80
2021/06/23 10:53:23;;;;;;;;;;;20.10;97.10;;;;;;4977129;28;19988;-80
2021/06/23 10:55:50;;;;;;;;;;;20.10;98.10;;;;;;4972190;28;19985;-80
2021/06/23 10:58:17;;;;;;;;;;;20.20;96.90;;;;;;4970137;28;19926;-80
2021/06/23 11:00:47;;;;;;;;;;;20.30;96.40;;;;;;4974993;28;20014;-80
2021/06/23 11:03:16;;;;;;;;;;;20.30;96.20;;;;;;4971249;28;20504;-80
2021/06/23 11:05:50;;;;;;;;;;;20.30;97.30;;;;;;4986712;28;19926;-80
2021/06/23 11:08:33;;;;;;;;;;;20.40;97.00;;;;;;4968682;28;20293;-80
2021/06/23 11:11:01;;;;;;;;;;;20.50;96.20;;;;;;4968251;28;19933;-80
2021/06/23 11:13:29;;;;;;;;;;;20.50;95.60;;;;;;4967971;28;20017;-80
2021/06/23 11:15:56;;;;;;;;;;;20.50;95.30;;;;;;4970698;28;19937;-80
2021/06/23 11:18:31;;;;;;;;;;;20.50;95.20;;;;;;4968660;28;20025;-80
2021/06/23 11:21:13;;;;;;;;;;;20.50;96.20;;;;;;4968031;28;19926;-80
2021/06/23 11:23:50;;;;;;;;;;;20.80;95.20;;;;;;4971788;28;19926;-80
2021/06/23 11:26:22;;;;;;;;;;;21.00;95.30;;;;;;4968726;28;19926;-80
2021/06/23 11:29:07;;;;;;;;;;;21.10;94.30;;;;;;4967888;28;19926;-81
2021/06/23 11:31:44;;;;;;;;;;;21.30;95.10;;;;;;4966110;28;19923;-80
2021/06/23 11:34:31;;;;;;;;;;;21.60;94.60;;;;;;4976313;28;19926;-80
2021/06/23 11:36:58;;;;;;;;;;;21.90;94.60;;;;;;4970628;28;19930;-80
2021/06/23 11:39:24;;;;;;;;;;;22.10;93.70;;;;;;4968729;28;19929;-80
2021/06/23 11:41:51;;;;;;;;;;;22.40;93.00;;;;;;4967704;28;19972;-80
2021/06/23 11:44:18;;;;;;;;;;;22.60;93.00;;;;;;4970417;28;19972;-80
2021/06/23 11:46:59;;;;;;;;;;;22.80;92.00;;;;;;4967567;28;19926;-80
2021/06/23 11:49:25;;;;;;;;;;;23.10;92.50;;;;;;4952041;28;20293;-81
2021/06/23 11:51:52;;;;;;;;;;;23.40;90.80;;;;;;4968954;28;19926;-81
2021/06/23 11:54:19;;;;;;;;;;;23.60;90.70;;;;;;4967130;28;20012;-80
2021/06/23 11:56:45;;;;;;;;;;;24.00;91.90;;;;;;4969851;28;19926;-81
2021/06/23 11:59:12;;;;;;;;;;;24.20;89.90;;;;;;4966626;28;19933;-81
2021/06/23 12:01:38;;;;;;;;;;;24.40;84.90;;;;;;4968947;28;19985;-81
2021/06/23 12:04:06;;;;;;;;;;;24.40;87.50;;;;;;4967872;28;19926;-81
2021/06/23 12:06:32;;;;;;;;;;;24.50;85.40;;;;;;4969373;28;19926;-81
2021/06/23 12:08:59;;;;;;;;;;;24.50;85.90;;;;;;4970096;28;20289;-80
2021/06/23 12:11:26;;;;;;;;;;;24.70;83.40;;;;;;4972915;28;19921;-80
2021/06/23 12:13:52;;;;;;;;;;;24.70;83.60;;;;;;4970049;28;19950;-81
2021/06/23 12:16:20;;;;;;;;;;;24.90;83.60;;;;;;4973065;28;20370;-80
2021/06/23 12:18:47;;;;;;;;;;;25.00;82.00;;;;;;4974386;28;19954;-81
2021/06/23 12:21:14;;;;;;;;;;;24.90;82.30;;;;;;4977007;28;20270;-80
2021/06/23 12:23:40;;;;;;;;;;;24.80;84.00;;;;;;4973648;28;19906;-80
2021/06/23 12:26:07;;;;;;;;;;;24.80;83.30;;;;;;4970878;28;19953;-81
2021/06/23 12:28:34;;;;;;;;;;;24.90;84.40;;;;;;4968970;28;19960;-81
2021/06/23 12:31:01;;;;;;;;;;;25.30;84.40;;;;;;4984041;28;19969;-80
2021/06/23 12:33:27;;;;;;;;;;;25.70;80.60;;;;;;4968997;28;19926;-80
2021/06/23 12:35:54;;;;;;;;;;;25.70;79.50;;;;;;4967061;28;19926;-81
2021/06/23 12:38:21;;;;;;;;;;;25.40;78.00;;;;;;4970265;28;20357;-81
2021/06/23 12:40:49;;;;;;;;;;;25.20;79.80;;;;;;4972072;28;19927;-81
2021/06/23 12:43:17;;;;;;;;;;;25.10;79.20;;;;;;4968459;28;19981;-81
2021/06/23 12:45:45;;;;;;;;;;;24.90;80.30;;;;;;4970888;28;20445;-81
2021/06/23 12:48:12;;;;;;;;;;;24.90;81.00;;;;;;4975775;28;19933;-81
2021/06/23 12:50:38;;;;;;;;;;;24.80;80.70;;;;;;4970269;28;19940;-81
2021/06/23 12:53:05;;;;;;;;;;;24.70;76.00;;;;;;4970076;28;19932;-80
2021/06/23 12:55:32;;;;;;;;;;;24.40;80.30;;;;;;4963819;28;19926;-80
2021/06/23 12:57:59;;;;;;;;;;;24.40;78.50;;;;;;4965824;28;19922;-81
2021/06/23 13:00:26;;;;;;;;;;;24.40;80.80;;;;;;4960308;28;20363;-81
2021/06/23 13:02:53;;;;;;;;;;;24.50;78.00;;;;;;4969207;28;20334;-81
2021/06/23 13:05:19;;;;;;;;;;;24.50;80.70;;;;;;4969465;28;19926;-81
2021/06/23 13:07:47;;;;;;;;;;;24.60;79.30;;;;;;4971108;28;19926;-81
2021/06/23 13:10:14;;;;;;;;;;;24.70;79.50;;;;;;4966173;28;19922;-81
2021/06/23 13:12:41;;;;;;;;;;;24.90;78.30;;;;;;4965243;28;19965;-81
2021/06/23 13:15:08;;;;;;;;;;;25.00;77.20;;;;;;4966881;28;19941;-80
2021/06/23 13:17:35;;;;;;;;;;;25.20;76.40;;;;;;4966655;28;19926;-81
2021/06/23 13:20:03;;;;;;;;;;;25.60;76.20;;;;;;4968517;28;19932;-81
2021/06/23 13:22:29;;;;;;;;;;;25.80;76.00;;;;;;4967886;28;19925;-81
2021/06/23 13:24:57;;;;;;;;;;;26.00;76.30;;;;;;4982608;28;20017;-81
2021/06/23 13:27:24;;;;;;;;;;;26.00;73.10;;;;;;4967000;28;19926;-80
2021/06/23 13:29:50;;;;;;;;;;;25.70;74.20;;;;;;4968178;28;19925;-81
2021/06/23 13:32:20;;;;;;;;;;;25.50;74.40;;;;;;4965631;28;20016;-81
2021/06/23 13:34:47;;;;;;;;;;;25.50;74.70;;;;;;4967528;28;20453;-81
2021/06/23 13:37:13;;;;;;;;;;;25.40;75.90;;;;;;4967727;28;19953;-81
2021/06/23 13:39:40;;;;;;;;;;;25.40;75.10;;;;;;4966394;28;19926;-81
2021/06/23 13:42:07;;;;;;;;;;;25.30;75.30;;;;;;4971425;28;20024;-81
2021/06/23 13:44:33;;;;;;;;;;;25.20;76.90;;;;;;4966841;28;20028;-81
2021/06/23 13:47:00;;;;;;;;;;;25.20;78.00;;;;;;4972284;28;21105;-81
2021/06/23 13:49:27;;;;;;;;;;;25.20;79.30;;;;;;4966911;28;19946;-81
2021/06/23 13:51:55;;;;;;;;;;;25.30;76.40;;;;;;4966888;28;20010;-80
2021/06/23 13:54:22;;;;;;;;;;;25.20;76.20;;;;;;4965924;28;19926;-81
2021/06/23 13:56:48;;;;;;;;;;;25.00;75.90;;;;;;4965123;28;19929;-81
2021/06/23 13:59:15;;;;;;;;;;;24.80;76.40;;;;;;4964349;28;19933;-81
2021/06/23 14:01:42;;;;;;;;;;;24.60;77.20;;;;;;4962003;28;20025;-81
2021/06/23 14:04:09;;;;;;;;;;;24.30;76.90;;;;;;4963757;28;19930;-80
2021/06/23 14:06:35;;;;;;;;;;;24.00;77.20;;;;;;4965483;28;20544;-81
2021/06/23 14:09:02;;;;;;;;;;;23.60;77.70;;;;;;4963561;28;19926;-80
2021/06/23 14:11:29;;;;;;;;;;;23.20;77.90;;;;;;4964018;28;19930;-80
2021/06/23 14:13:56;;;;;;;;;;;22.80;80.10;;;;;;4958717;28;19968;-81
2021/06/23 14:16:22;;;;;;;;;;;22.60;79.50;;;;;;4962728;28;19929;-80
2021/06/23 14:18:49;;;;;;;;;;;22.40;80.40;;;;;;4961953;28;19936;-79
2021/06/23 14:21:17;;;;;;;;;;;22.10;81.10;;;;;;4963751;28;20475;-80
2021/06/23 14:23:44;;;;;;;;;;;21.80;83.10;;;;;;4963202;28;19922;-79
2021/06/23 14:26:30;;;;;;;;;;;21.70;84.20;;;;;;4961446;28;19930;-80
2021/06/23 14:28:57;;;;;;;;;;;21.50;84.30;;;;;;4963082;28;19941;-79
2021/06/23 14:31:23;;;;;;;;;;;21.50;84.40;;;;;;4961591;28;19926;-79
2021/06/23 14:33:50;;;;;;;;;;;21.40;85.50;;;;;;4955414;28;19930;-80
2021/06/23 14:36:17;;;;;;;;;;;21.30;86.40;;;;;;4960774;28;19932;-79
2021/06/23 14:38:44;;;;;;;;;;;21.20;85.60;;;;;;4959451;28;19930;-79
2021/06/23 14:41:10;;;;;;;;;;;21.10;86.30;;;;;;4964228;28;19976;-80
2021/06/23 14:43:37;;;;;;;;;;;21.10;87.20;;;;;;4962962;28;21772;-79